sensor_id;sensor_type;location;lat;lon;timestamp;pressure;altitude;pressure_sealevel;temperature;humidity
28027;BME280;15344;52.342;-1.290;2022-08-19T00:01:40;99827.99;;;23.09;93.76
28027;BME280;15344;52.342;-1.290;2022-08-19T00:04:10;99833.12;;;22.95;93.21
28027;BME280;15344;52.342;-1.290;2022-08-19T00:06:30;99828.17;;;23.67;88.13
28027;BME280;15344;52.342;-1.290;2022-08-19T00:08:55;99825.42;;;22.99;88.85
28027;BME280;15344;52.342;-1.290;2022-08-19T00:11:19;99820.16;;;23.16;88.89
28027;BME280;15344;52.342;-1.290;2022-08-19T00:13:44;99820.47;;;23.54;88.97
28027;BME280;15344;52.342;-1.290;2022-08-19T00:16:09;99820.93;;;22.61;92.29
28027;BME280;15344;52.342;-1.290;2022-08-19T00:18:34;99818.60;;;23.47;88.47
28027;BME280;15344;52.342;-1.290;2022-08-19T00:20:59;99819.59;;;23.35;88.66
28027;BME280;15344;52.342;-1.290;2022-08-19T00:23:24;99818.33;;;22.42;93.75
28027;BME280;15344;52.342;-1.290;2022-08-19T00:25:49;99824.15;;;22.40;95.14
28027;BME280;15344;52.342;-1.290;2022-08-19T00:28:14;99821.55;;;22.55;94.17
28027;BME280;15344;52.342;-1.290;2022-08-19T00:30:39;99817.51;;;21.96;97.60
28027;BME280;15344;52.342;-1.290;2022-08-19T00:33:04;99824.26;;;22.70;94.02
28027;BME280;15344;52.342;-1.290;2022-08-19T00:35:29;99820.20;;;21.62;100.00
28027;BME280;15344;52.342;-1.290;2022-08-19T00:37:55;99827.13;;;23.01;92.28
28027;BME280;15344;52.342;-1.290;2022-08-19T00:40:20;99825.34;;;23.62;89.91
28027;BME280;15344;52.342;-1.290;2022-08-19T00:42:45;99827.74;;;22.88;93.72
28027;BME280;15344;52.342;-1.290;2022-08-19T00:45:13;99828.15;;;23.74;88.61
28027;BME280;15344;52.342;-1.290;2022-08-19T00:47:35;99828.08;;;22.99;89.49
28027;BME280;15344;52.342;-1.290;2022-08-19T00:50:00;99823.35;;;23.12;88.67
28027;BME280;15344;52.342;-1.290;2022-08-19T00:52:29;99827.17;;;22.51;90.23
28027;BME280;15344;52.342;-1.290;2022-08-19T00:54:51;99826.53;;;22.98;89.83
28027;BME280;15344;52.342;-1.290;2022-08-19T00:57:18;99826.10;;;23.52;87.77
28027;BME280;15344;52.342;-1.290;2022-08-19T00:59:42;99825.50;;;23.09;87.49
28027;BME280;15344;52.342;-1.290;2022-08-19T01:02:06;99825.25;;;23.24;87.39
28027;BME280;15344;52.342;-1.290;2022-08-19T01:04:31;99825.98;;;22.76;88.25
28027;BME280;15344;52.342;-1.290;2022-08-19T01:06:56;99825.06;;;23.52;86.42
28027;BME280;15344;52.342;-1.290;2022-08-19T01:09:21;99822.77;;;23.60;86.32
28027;BME280;15344;52.342;-1.290;2022-08-19T01:11:46;99815.50;;;23.84;84.38
28027;BME280;15344;52.342;-1.290;2022-08-19T01:14:12;99818.29;;;22.92;86.28
28027;BME280;15344;52.342;-1.290;2022-08-19T01:16:37;99819.64;;;24.53;81.49
28027;BME280;15344;52.342;-1.290;2022-08-19T01:19:01;99820.54;;;24.36;81.72
28027;BME280;15344;52.342;-1.290;2022-08-19T01:21:30;99823.20;;;24.06;82.05
28027;BME280;15344;52.342;-1.290;2022-08-19T01:23:52;99821.62;;;24.35;80.97
28027;BME280;15344;52.342;-1.290;2022-08-19T01:26:18;99820.48;;;24.18;83.02
28027;BME280;15344;52.342;-1.290;2022-08-19T01:28:42;99819.00;;;23.99;83.28
28027;BME280;15344;52.342;-1.290;2022-08-19T01:31:07;99826.06;;;23.50;85.46
28027;BME280;15344;52.342;-1.290;2022-08-19T01:33:31;99828.11;;;23.31;85.90
28027;BME280;15344;52.342;-1.290;2022-08-19T01:36:05;99829.71;;;24.02;82.54
28027;BME280;15344;52.342;-1.290;2022-08-19T01:38:23;99835.39;;;23.72;84.95
28027;BME280;15344;52.342;-1.290;2022-08-19T01:40:46;99830.24;;;24.05;84.16
28027;BME280;15344;52.342;-1.290;2022-08-19T01:43:11;99830.18;;;23.92;84.73
28027;BME280;15344;52.342;-1.290;2022-08-19T01:45:37;99830.58;;;23.32;87.27
28027;BME280;15344;52.342;-1.290;2022-08-19T01:48:03;99830.35;;;22.67;88.80
28027;BME280;15344;52.342;-1.290;2022-08-19T01:50:26;99829.08;;;23.39;87.20
28027;BME280;15344;52.342;-1.290;2022-08-19T01:52:52;99825.39;;;23.26;87.58
28027;BME280;15344;52.342;-1.290;2022-08-19T01:55:19;99824.49;;;23.20;85.61
28027;BME280;15344;52.342;-1.290;2022-08-19T01:57:46;99823.61;;;22.69;88.47
28027;BME280;15344;52.342;-1.290;2022-08-19T02:00:12;99821.05;;;22.88;88.32
28027;BME280;15344;52.342;-1.290;2022-08-19T02:02:31;99822.28;;;22.65;91.32
28027;BME280;15344;52.342;-1.290;2022-08-19T02:04:56;99818.62;;;23.56;87.67
28027;BME280;15344;52.342;-1.290;2022-08-19T02:07:22;99823.41;;;22.88;91.74
28027;BME280;15344;52.342;-1.290;2022-08-19T02:09:47;99828.41;;;22.79;90.01
28027;BME280;15344;52.342;-1.290;2022-08-19T02:12:12;99834.91;;;23.21;90.19
28027;BME280;15344;52.342;-1.290;2022-08-19T02:14:37;99836.94;;;23.14;89.84
28027;BME280;15344;52.342;-1.290;2022-08-19T02:17:02;99839.26;;;22.84;91.42
28027;BME280;15344;52.342;-1.290;2022-08-19T02:19:27;99837.77;;;22.48;94.98
28027;BME280;15344;52.342;-1.290;2022-08-19T02:21:52;99838.62;;;22.82;91.12
28027;BME280;15344;52.342;-1.290;2022-08-19T02:24:17;99840.81;;;22.97;91.31
28027;BME280;15344;52.342;-1.290;2022-08-19T02:26:43;99841.64;;;22.33;93.28
28027;BME280;15344;52.342;-1.290;2022-08-19T02:29:07;99843.56;;;23.20;89.32
28027;BME280;15344;52.342;-1.290;2022-08-19T02:31:32;99846.34;;;23.39;89.73
28027;BME280;15344;52.342;-1.290;2022-08-19T02:33:57;99844.94;;;23.55;87.81
28027;BME280;15344;52.342;-1.290;2022-08-19T02:36:24;99847.19;;;23.86;86.46
28027;BME280;15344;52.342;-1.290;2022-08-19T02:38:49;99845.58;;;23.67;86.92
28027;BME280;15344;52.342;-1.290;2022-08-19T02:41:16;99845.61;;;23.97;87.77
28027;BME280;15344;52.342;-1.290;2022-08-19T02:43:38;99836.26;;;23.81;87.80
28027;BME280;15344;52.342;-1.290;2022-08-19T02:46:14;99844.97;;;23.41;89.05
28027;BME280;15344;52.342;-1.290;2022-08-19T02:48:28;99841.46;;;24.02;85.92
28027;BME280;15344;52.342;-1.290;2022-08-19T02:50:53;99843.33;;;24.04;85.63
28027;BME280;15344;52.342;-1.290;2022-08-19T02:53:18;99845.26;;;24.11;85.01
28027;BME280;15344;52.342;-1.290;2022-08-19T02:55:45;99848.07;;;24.36;83.23
28027;BME280;15344;52.342;-1.290;2022-08-19T02:58:09;99854.91;;;23.97;84.61
28027;BME280;15344;52.342;-1.290;2022-08-19T03:00:34;99848.67;;;24.10;84.45
28027;BME280;15344;52.342;-1.290;2022-08-19T03:02:59;99845.80;;;23.94;85.35
28027;BME280;15344;52.342;-1.290;2022-08-19T03:05:24;99848.02;;;23.94;83.39
28027;BME280;15344;52.342;-1.290;2022-08-19T03:07:49;99845.20;;;24.59;83.60
28027;BME280;15344;52.342;-1.290;2022-08-19T03:10:14;99842.49;;;24.19;83.52
28027;BME280;15344;52.342;-1.290;2022-08-19T03:12:39;99842.86;;;24.78;83.19
28027;BME280;15344;52.342;-1.290;2022-08-19T03:15:06;99839.00;;;24.08;83.68
28027;BME280;15344;52.342;-1.290;2022-08-19T03:17:29;99843.16;;;24.50;81.02
28027;BME280;15344;52.342;-1.290;2022-08-19T03:19:55;99842.89;;;24.61;80.49
28027;BME280;15344;52.342;-1.290;2022-08-19T03:22:19;99849.40;;;23.47;85.84
28027;BME280;15344;52.342;-1.290;2022-08-19T03:24:44;99848.97;;;24.44;83.33
28027;BME280;15344;52.342;-1.290;2022-08-19T03:27:09;99848.03;;;24.33;83.41
28027;BME280;15344;52.342;-1.290;2022-08-19T03:29:37;99852.43;;;24.22;83.87
28027;BME280;15344;52.342;-1.290;2022-08-19T03:32:00;99855.11;;;23.93;84.45
28027;BME280;15344;52.342;-1.290;2022-08-19T03:34:27;99858.46;;;23.92;84.03
28027;BME280;15344;52.342;-1.290;2022-08-19T03:36:49;99861.00;;;24.13;84.36
28027;BME280;15344;52.342;-1.290;2022-08-19T03:39:15;99856.94;;;23.78;85.12
28027;BME280;15344;52.342;-1.290;2022-08-19T03:41:41;99857.37;;;23.72;85.83
28027;BME280;15344;52.342;-1.290;2022-08-19T03:44:04;99859.80;;;23.66;83.95
28027;BME280;15344;52.342;-1.290;2022-08-19T03:46:32;99858.28;;;22.87;87.58
28027;BME280;15344;52.342;-1.290;2022-08-19T03:48:56;99857.88;;;22.71;88.54
28027;BME280;15344;52.342;-1.290;2022-08-19T03:51:22;99860.91;;;23.08;85.13
28027;BME280;15344;52.342;-1.290;2022-08-19T03:53:45;99859.13;;;22.94;86.04
28027;BME280;15344;52.342;-1.290;2022-08-19T03:56:10;99862.74;;;23.12;83.43
28027;BME280;15344;52.342;-1.290;2022-08-19T03:58:35;99865.77;;;23.35;83.51
28027;BME280;15344;52.342;-1.290;2022-08-19T04:01:00;99866.86;;;22.86;82.22
28027;BME280;15344;52.342;-1.290;2022-08-19T04:03:26;99871.22;;;23.41;81.76
28027;BME280;15344;52.342;-1.290;2022-08-19T04:05:50;99872.75;;;23.56;81.69
28027;BME280;15344;52.342;-1.290;2022-08-19T04:08:15;99872.99;;;22.99;81.26
28027;BME280;15344;52.342;-1.290;2022-08-19T04:10:40;99871.43;;;22.79;82.71
28027;BME280;15344;52.342;-1.290;2022-08-19T04:13:05;99874.70;;;23.33;80.79
28027;BME280;15344;52.342;-1.290;2022-08-19T04:15:30;99879.24;;;23.64;80.45
28027;BME280;15344;52.342;-1.290;2022-08-19T04:17:55;99884.18;;;23.11;81.08
28027;BME280;15344;52.342;-1.290;2022-08-19T04:20:20;99882.93;;;23.26;80.09
28027;BME280;15344;52.342;-1.290;2022-08-19T04:22:45;99884.11;;;23.31;80.81
28027;BME280;15344;52.342;-1.290;2022-08-19T04:25:11;99882.51;;;23.14;79.54
28027;BME280;15344;52.342;-1.290;2022-08-19T04:27:36;99884.45;;;23.15;80.45
28027;BME280;15344;52.342;-1.290;2022-08-19T04:30:01;99890.91;;;23.39;79.24
28027;BME280;15344;52.342;-1.290;2022-08-19T04:32:26;99884.32;;;22.77;81.60
28027;BME280;15344;52.342;-1.290;2022-08-19T04:34:51;99887.21;;;22.69;82.36
28027;BME280;15344;52.342;-1.290;2022-08-19T04:37:16;99888.57;;;22.58;82.35
28027;BME280;15344;52.342;-1.290;2022-08-19T04:39:41;99890.39;;;23.33;80.87
28027;BME280;15344;52.342;-1.290;2022-08-19T04:42:06;99894.28;;;23.23;81.36
28027;BME280;15344;52.342;-1.290;2022-08-19T04:44:33;99897.49;;;22.80;81.96
28027;BME280;15344;52.342;-1.290;2022-08-19T04:46:56;99905.67;;;22.41;84.46
28027;BME280;15344;52.342;-1.290;2022-08-19T04:49:22;99907.11;;;22.77;83.65
28027;BME280;15344;52.342;-1.290;2022-08-19T04:51:47;99912.26;;;22.79;81.68
28027;BME280;15344;52.342;-1.290;2022-08-19T04:54:12;99915.86;;;23.17;80.30
28027;BME280;15344;52.342;-1.290;2022-08-19T04:56:38;99919.41;;;23.38;79.18
28027;BME280;15344;52.342;-1.290;2022-08-19T04:59:02;99919.29;;;22.28;83.81
28027;BME280;15344;52.342;-1.290;2022-08-19T05:01:28;99923.96;;;22.69;81.93
28027;BME280;15344;52.342;-1.290;2022-08-19T05:03:52;99919.09;;;22.33;83.17
28027;BME280;15344;52.342;-1.290;2022-08-19T05:06:19;99922.44;;;23.00;81.62
28027;BME280;15344;52.342;-1.290;2022-08-19T05:08:43;99917.01;;;22.35;82.39
28027;BME280;15344;52.342;-1.290;2022-08-19T05:11:12;99916.05;;;23.09;79.39
28027;BME280;15344;52.342;-1.290;2022-08-19T05:13:32;99916.13;;;23.49;78.84
28027;BME280;15344;52.342;-1.290;2022-08-19T05:15:58;99914.66;;;21.66;84.68
28027;BME280;15344;52.342;-1.290;2022-08-19T05:18:22;99912.01;;;22.81;80.82
28027;BME280;15344;52.342;-1.290;2022-08-19T05:20:47;99915.25;;;23.22;79.72
28027;BME280;15344;52.342;-1.290;2022-08-19T05:23:12;99918.70;;;23.33;78.24
28027;BME280;15344;52.342;-1.290;2022-08-19T05:25:39;99925.15;;;22.45;79.21
28027;BME280;15344;52.342;-1.290;2022-08-19T05:28:04;99934.26;;;22.89;78.92
28027;BME280;15344;52.342;-1.290;2022-08-19T05:30:30;99941.90;;;22.89;78.26
28027;BME280;15344;52.342;-1.290;2022-08-19T05:32:55;99945.65;;;22.69;78.53
28027;BME280;15344;52.342;-1.290;2022-08-19T05:35:20;99955.54;;;22.92;76.56
28027;BME280;15344;52.342;-1.290;2022-08-19T05:37:46;99960.73;;;23.33;77.03
28027;BME280;15344;52.342;-1.290;2022-08-19T05:40:10;99962.07;;;23.54;74.29
28027;BME280;15344;52.342;-1.290;2022-08-19T05:42:35;99959.74;;;23.51;75.41
28027;BME280;15344;52.342;-1.290;2022-08-19T05:45:00;99962.18;;;23.35;75.37
28027;BME280;15344;52.342;-1.290;2022-08-19T05:47:25;99961.94;;;23.50;75.18
28027;BME280;15344;52.342;-1.290;2022-08-19T05:49:50;99960.88;;;23.77;74.95
28027;BME280;15344;52.342;-1.290;2022-08-19T05:52:16;99958.09;;;22.80;76.47
28027;BME280;15344;52.342;-1.290;2022-08-19T05:54:41;99958.26;;;23.69;75.94
28027;BME280;15344;52.342;-1.290;2022-08-19T05:57:05;99960.98;;;23.03;77.30
28027;BME280;15344;52.342;-1.290;2022-08-19T05:59:30;99963.62;;;23.77;75.44
28027;BME280;15344;52.342;-1.290;2022-08-19T06:01:56;99965.00;;;22.99;77.40
28027;BME280;15344;52.342;-1.290;2022-08-19T06:04:21;99969.96;;;23.67;76.37
28027;BME280;15344;52.342;-1.290;2022-08-19T06:06:46;99969.14;;;23.19;78.42
28027;BME280;15344;52.342;-1.290;2022-08-19T06:09:11;99976.28;;;23.77;77.07
28027;BME280;15344;52.342;-1.290;2022-08-19T06:11:39;99974.01;;;22.95;77.49
28027;BME280;15344;52.342;-1.290;2022-08-19T06:14:04;99978.06;;;23.07;78.30
28027;BME280;15344;52.342;-1.290;2022-08-19T06:16:27;99981.89;;;22.85;78.02
28027;BME280;15344;52.342;-1.290;2022-08-19T06:18:52;99987.73;;;22.83;77.42
28027;BME280;15344;52.342;-1.290;2022-08-19T06:21:18;99992.51;;;23.51;76.46
28027;BME280;15344;52.342;-1.290;2022-08-19T06:23:41;99995.62;;;23.66;76.48
28027;BME280;15344;52.342;-1.290;2022-08-19T06:26:07;99991.58;;;22.76;71.65
28027;BME280;15344;52.342;-1.290;2022-08-19T06:28:31;99994.06;;;22.90;67.72
28027;BME280;15344;52.342;-1.290;2022-08-19T06:30:56;99998.44;;;23.60;64.94
28027;BME280;15344;52.342;-1.290;2022-08-19T06:33:21;99999.75;;;23.70;62.99
28027;BME280;15344;52.342;-1.290;2022-08-19T06:35:46;100002.08;;;23.99;64.78
28027;BME280;15344;52.342;-1.290;2022-08-19T06:38:11;100003.93;;;23.93;63.69
28027;BME280;15344;52.342;-1.290;2022-08-19T06:40:37;100000.56;;;23.48;64.67
28027;BME280;15344;52.342;-1.290;2022-08-19T06:43:02;99999.40;;;22.90;63.61
28027;BME280;15344;52.342;-1.290;2022-08-19T06:45:27;100003.67;;;23.71;61.03
28027;BME280;15344;52.342;-1.290;2022-08-19T06:47:52;100003.02;;;23.13;63.06
28027;BME280;15344;52.342;-1.290;2022-08-19T06:50:17;100002.49;;;23.56;63.65
28027;BME280;15344;52.342;-1.290;2022-08-19T06:52:42;100003.02;;;23.51;63.31
28027;BME280;15344;52.342;-1.290;2022-08-19T06:55:07;100008.07;;;23.39;62.04
28027;BME280;15344;52.342;-1.290;2022-08-19T06:57:33;100005.83;;;23.00;65.10
28027;BME280;15344;52.342;-1.290;2022-08-19T06:59:57;100009.86;;;23.79;65.66
28027;BME280;15344;52.342;-1.290;2022-08-19T07:02:23;100011.74;;;22.87;66.63
28027;BME280;15344;52.342;-1.290;2022-08-19T07:04:48;100016.20;;;22.49;67.82
28027;BME280;15344;52.342;-1.290;2022-08-19T07:07:15;100017.66;;;23.18;67.10
28027;BME280;15344;52.342;-1.290;2022-08-19T07:09:41;100020.98;;;22.83;67.65
28027;BME280;15344;52.342;-1.290;2022-08-19T07:12:06;100024.51;;;22.93;66.57
28027;BME280;15344;52.342;-1.290;2022-08-19T07:14:29;100024.60;;;22.26;68.15
28027;BME280;15344;52.342;-1.290;2022-08-19T07:16:56;100032.44;;;22.05;70.77
28027;BME280;15344;52.342;-1.290;2022-08-19T07:19:19;100033.48;;;22.37;68.97
28027;BME280;15344;52.342;-1.290;2022-08-19T07:21:45;100030.18;;;23.07;67.96
28027;BME280;15344;52.342;-1.290;2022-08-19T07:24:09;100034.41;;;22.86;67.14
28027;BME280;15344;52.342;-1.290;2022-08-19T07:26:39;100043.20;;;23.67;66.52
28027;BME280;15344;52.342;-1.290;2022-08-19T07:29:00;100048.45;;;24.07;61.88
28027;BME280;15344;52.342;-1.290;2022-08-19T07:31:27;100052.31;;;22.55;59.95
28027;BME280;15344;52.342;-1.290;2022-08-19T07:33:51;100050.33;;;22.25;60.88
28027;BME280;15344;52.342;-1.290;2022-08-19T07:36:17;100048.00;;;23.84;59.60
28027;BME280;15344;52.342;-1.290;2022-08-19T07:38:42;100051.61;;;24.39;55.51
28027;BME280;15344;52.342;-1.290;2022-08-19T07:41:05;100050.79;;;25.10;53.83
28027;BME280;15344;52.342;-1.290;2022-08-19T07:43:31;100048.25;;;26.31;48.04
28027;BME280;15344;52.342;-1.290;2022-08-19T07:45:56;100048.80;;;26.92;48.45
28027;BME280;15344;52.342;-1.290;2022-08-19T07:48:22;100047.71;;;27.65;45.84
28027;BME280;15344;52.342;-1.290;2022-08-19T07:50:48;100054.87;;;27.72;44.64
28027;BME280;15344;52.342;-1.290;2022-08-19T07:53:14;100055.98;;;29.25;42.14
28027;BME280;15344;52.342;-1.290;2022-08-19T07:55:40;100057.59;;;29.03;41.46
28027;BME280;15344;52.342;-1.290;2022-08-19T07:58:06;100062.35;;;27.78;42.23
28027;BME280;15344;52.342;-1.290;2022-08-19T08:00:31;100062.50;;;28.95;40.80
28027;BME280;15344;52.342;-1.290;2022-08-19T08:02:57;100067.55;;;27.61;41.38
28027;BME280;15344;52.342;-1.290;2022-08-19T08:05:23;100068.47;;;28.43;40.87
28027;BME280;15344;52.342;-1.290;2022-08-19T08:07:48;100073.24;;;28.75;42.21
28027;BME280;15344;52.342;-1.290;2022-08-19T08:10:14;100068.47;;;26.63;41.25
28027;BME280;15344;52.342;-1.290;2022-08-19T08:12:40;100075.03;;;28.60;39.04
28027;BME280;15344;52.342;-1.290;2022-08-19T08:15:10;100073.56;;;29.63;35.33
28027;BME280;15344;52.342;-1.290;2022-08-19T08:17:32;100079.94;;;27.41;37.57
28027;BME280;15344;52.342;-1.290;2022-08-19T08:19:57;100075.13;;;27.85;36.15
28027;BME280;15344;52.342;-1.290;2022-08-19T08:22:23;100073.72;;;29.51;34.59
28027;BME280;15344;52.342;-1.290;2022-08-19T08:24:48;100074.83;;;29.25;35.24
28027;BME280;15344;52.342;-1.290;2022-08-19T08:27:14;100074.41;;;30.48;33.03
28027;BME280;15344;52.342;-1.290;2022-08-19T08:29:39;100075.62;;;28.95;33.02
28027;BME280;15344;52.342;-1.290;2022-08-19T08:32:05;100087.43;;;31.69;30.90
28027;BME280;15344;52.342;-1.290;2022-08-19T08:34:31;100086.70;;;29.11;31.96
28027;BME280;15344;52.342;-1.290;2022-08-19T08:36:56;100085.45;;;29.59;30.16
28027;BME280;15344;52.342;-1.290;2022-08-19T08:39:22;100084.87;;;29.54;32.05
28027;BME280;15344;52.342;-1.290;2022-08-19T08:41:55;100086.47;;;30.81;30.45
28027;BME280;15344;52.342;-1.290;2022-08-19T08:44:18;100086.68;;;29.83;29.66
28027;BME280;15344;52.342;-1.290;2022-08-19T08:46:44;100080.86;;;30.47;32.53
28027;BME280;15344;52.342;-1.290;2022-08-19T08:49:14;100084.14;;;30.92;30.30
28027;BME280;15344;52.342;-1.290;2022-08-19T08:51:34;100083.18;;;31.22;29.27
28027;BME280;15344;52.342;-1.290;2022-08-19T08:53:56;100075.87;;;30.71;26.86
28027;BME280;15344;52.342;-1.290;2022-08-19T08:56:22;100076.18;;;31.84;25.98
28027;BME280;15344;52.342;-1.290;2022-08-19T08:58:54;100080.01;;;31.26;26.98
28027;BME280;15344;52.342;-1.290;2022-08-19T09:01:13;100082.02;;;31.90;26.17
28027;BME280;15344;52.342;-1.290;2022-08-19T09:03:40;100085.67;;;31.71;27.34
28027;BME280;15344;52.342;-1.290;2022-08-19T09:06:07;100082.43;;;31.89;26.56
28027;BME280;15344;52.342;-1.290;2022-08-19T09:08:40;100082.48;;;29.48;29.47
28027;BME280;15344;52.342;-1.290;2022-08-19T09:10:56;100077.52;;;30.92;28.48
28027;BME280;15344;52.342;-1.290;2022-08-19T09:13:27;100075.31;;;31.90;24.85
28027;BME280;15344;52.342;-1.290;2022-08-19T09:15:51;100079.37;;;32.08;26.70
28027;BME280;15344;52.342;-1.290;2022-08-19T09:18:13;100080.30;;;31.86;24.55
28027;BME280;15344;52.342;-1.290;2022-08-19T09:20:37;100082.68;;;31.85;23.79
28027;BME280;15344;52.342;-1.290;2022-08-19T09:23:03;100083.01;;;30.88;26.16
28027;BME280;15344;52.342;-1.290;2022-08-19T09:25:29;100088.71;;;31.32;24.74
28027;BME280;15344;52.342;-1.290;2022-08-19T09:27:55;100087.89;;;31.05;27.73
28027;BME280;15344;52.342;-1.290;2022-08-19T09:30:22;100087.93;;;31.87;23.96
28027;BME280;15344;52.342;-1.290;2022-08-19T09:32:46;100087.07;;;31.66;24.09
28027;BME280;15344;52.342;-1.290;2022-08-19T09:35:12;100093.99;;;30.89;25.11
28027;BME280;15344;52.342;-1.290;2022-08-19T09:37:36;100097.99;;;31.59;25.11
28027;BME280;15344;52.342;-1.290;2022-08-19T09:40:03;100098.10;;;30.09;25.94
28027;BME280;15344;52.342;-1.290;2022-08-19T09:42:28;100097.65;;;30.40;25.66
28027;BME280;15344;52.342;-1.290;2022-08-19T09:44:54;100095.98;;;30.13;25.76
28027;BME280;15344;52.342;-1.290;2022-08-19T09:47:19;100095.36;;;30.70;26.36
28027;BME280;15344;52.342;-1.290;2022-08-19T09:49:45;100093.50;;;31.50;25.21
28027;BME280;15344;52.342;-1.290;2022-08-19T09:52:11;100088.85;;;30.14;25.57
28027;BME280;15344;52.342;-1.290;2022-08-19T09:54:36;100089.26;;;32.05;24.87
28027;BME280;15344;52.342;-1.290;2022-08-19T09:57:02;100092.24;;;31.84;25.58
28027;BME280;15344;52.342;-1.290;2022-08-19T09:59:28;100095.56;;;31.08;25.90
28027;BME280;15344;52.342;-1.290;2022-08-19T10:01:53;100091.67;;;29.90;27.16
28027;BME280;15344;52.342;-1.290;2022-08-19T10:04:19;100091.34;;;29.47;25.54
28027;BME280;15344;52.342;-1.290;2022-08-19T10:06:44;100093.91;;;30.85;26.03
28027;BME280;15344;52.342;-1.290;2022-08-19T10:09:10;100095.84;;;29.22;26.72
28027;BME280;15344;52.342;-1.290;2022-08-19T10:11:35;100096.75;;;30.60;27.22
28027;BME280;15344;52.342;-1.290;2022-08-19T10:14:01;100098.30;;;30.01;26.23
28027;BME280;15344;52.342;-1.290;2022-08-19T10:16:27;100099.54;;;28.30;27.89
28027;BME280;15344;52.342;-1.290;2022-08-19T10:18:53;100097.41;;;29.25;27.24
28027;BME280;15344;52.342;-1.290;2022-08-19T10:21:21;100103.42;;;29.47;28.12
28027;BME280;15344;52.342;-1.290;2022-08-19T10:23:45;100102.43;;;29.78;29.61
28027;BME280;15344;52.342;-1.290;2022-08-19T10:26:09;100097.32;;;30.44;26.72
28027;BME280;15344;52.342;-1.290;2022-08-19T10:28:35;100098.91;;;32.04;26.63
28027;BME280;15344;52.342;-1.290;2022-08-19T10:31:04;100102.06;;;30.33;27.76
28027;BME280;15344;52.342;-1.290;2022-08-19T10:33:26;100097.50;;;29.69;28.48
28027;BME280;15344;52.342;-1.290;2022-08-19T10:35:58;100103.53;;;32.15;27.07
28027;BME280;15344;52.342;-1.290;2022-08-19T10:38:17;100103.42;;;31.42;26.55
28027;BME280;15344;52.342;-1.290;2022-08-19T10:40:43;100103.33;;;30.11;26.92
28027;BME280;15344;52.342;-1.290;2022-08-19T10:43:09;100107.65;;;29.22;28.35
28027;BME280;15344;52.342;-1.290;2022-08-19T10:45:34;100110.13;;;28.97;28.33
28027;BME280;15344;52.342;-1.290;2022-08-19T10:48:00;100098.71;;;30.00;27.59
28027;BME280;15344;52.342;-1.290;2022-08-19T10:50:26;100095.79;;;30.31;27.06
28027;BME280;15344;52.342;-1.290;2022-08-19T10:52:53;100104.39;;;30.13;27.28
28027;BME280;15344;52.342;-1.290;2022-08-19T10:55:19;100105.02;;;31.28;26.49
28027;BME280;15344;52.342;-1.290;2022-08-19T10:57:43;100108.46;;;30.75;26.25
28027;BME280;15344;52.342;-1.290;2022-08-19T11:00:10;100106.52;;;28.80;28.03
28027;BME280;15344;52.342;-1.290;2022-08-19T11:02:34;100111.80;;;29.11;27.69
28027;BME280;15344;52.342;-1.290;2022-08-19T11:05:01;100101.21;;;28.74;28.09
28027;BME280;15344;52.342;-1.290;2022-08-19T11:07:25;100104.08;;;28.94;28.60
28027;BME280;15344;52.342;-1.290;2022-08-19T11:09:52;100097.77;;;28.35;29.02
28027;BME280;15344;52.342;-1.290;2022-08-19T11:12:17;100091.62;;;28.84;28.47
28027;BME280;15344;52.342;-1.290;2022-08-19T11:14:43;100086.72;;;28.99;29.37
28027;BME280;15344;52.342;-1.290;2022-08-19T11:17:09;100090.82;;;27.86;29.40
28027;BME280;15344;52.342;-1.290;2022-08-19T11:19:35;100088.61;;;28.75;28.63
28027;BME280;15344;52.342;-1.290;2022-08-19T11:22:00;100096.75;;;27.65;30.11
28027;BME280;15344;52.342;-1.290;2022-08-19T11:24:26;100091.68;;;28.30;29.34
28027;BME280;15344;52.342;-1.290;2022-08-19T11:26:54;100087.78;;;28.61;29.76
28027;BME280;15344;52.342;-1.290;2022-08-19T11:29:18;100088.17;;;27.57;30.53
28027;BME280;15344;52.342;-1.290;2022-08-19T11:31:45;100086.00;;;27.05;30.43
28027;BME280;15344;52.342;-1.290;2022-08-19T11:34:11;100088.11;;;25.80;33.77
28027;BME280;15344;52.342;-1.290;2022-08-19T11:36:38;100088.45;;;27.71;33.33
28027;BME280;15344;52.342;-1.290;2022-08-19T11:39:01;100088.71;;;26.67;32.85
28027;BME280;15344;52.342;-1.290;2022-08-19T11:41:26;100089.42;;;25.93;31.56
28027;BME280;15344;52.342;-1.290;2022-08-19T11:43:53;100092.63;;;26.26;32.01
28027;BME280;15344;52.342;-1.290;2022-08-19T11:46:17;100090.80;;;26.15;32.16
28027;BME280;15344;52.342;-1.290;2022-08-19T11:48:44;100091.56;;;24.78;33.88
28027;BME280;15344;52.342;-1.290;2022-08-19T11:51:11;100087.15;;;25.99;32.93
28027;BME280;15344;52.342;-1.290;2022-08-19T11:53:36;100088.06;;;26.34;32.51
28027;BME280;15344;52.342;-1.290;2022-08-19T11:56:02;100093.29;;;26.61;32.44
28027;BME280;15344;52.342;-1.290;2022-08-19T11:58:26;100091.83;;;25.89;32.50
28027;BME280;15344;52.342;-1.290;2022-08-19T12:00:52;100085.70;;;26.58;31.60
28027;BME280;15344;52.342;-1.290;2022-08-19T12:03:18;100083.14;;;25.77;32.44
28027;BME280;15344;52.342;-1.290;2022-08-19T12:05:53;100083.16;;;26.39;32.77
28027;BME280;15344;52.342;-1.290;2022-08-19T12:08:09;100084.30;;;26.74;32.09
28027;BME280;15344;52.342;-1.290;2022-08-19T12:10:36;100087.32;;;27.63;30.59
28027;BME280;15344;52.342;-1.290;2022-08-19T12:13:01;100088.84;;;26.64;30.64
28027;BME280;15344;52.342;-1.290;2022-08-19T12:15:27;100090.90;;;25.58;32.75
28027;BME280;15344;52.342;-1.290;2022-08-19T12:17:53;100099.64;;;26.25;33.98
28027;BME280;15344;52.342;-1.290;2022-08-19T12:20:18;100094.71;;;27.20;33.48
28027;BME280;15344;52.342;-1.290;2022-08-19T12:22:44;100100.14;;;26.16;33.08
28027;BME280;15344;52.342;-1.290;2022-08-19T12:25:11;100096.80;;;26.23;32.54
28027;BME280;15344;52.342;-1.290;2022-08-19T12:27:36;100091.29;;;25.93;31.76
28027;BME280;15344;52.342;-1.290;2022-08-19T12:30:02;100100.32;;;26.01;33.76
28027;BME280;15344;52.342;-1.290;2022-08-19T12:32:27;100102.64;;;25.94;32.88
28027;BME280;15344;52.342;-1.290;2022-08-19T12:34:54;100103.14;;;25.79;32.72